N970TW KFNL-KFNL
Flight info
| Callsign | N970TW |
|---|---|
| Flight time | 0h 8m |
| Altitude | 5500 |
| Route | FIRST TIME ON VATSIM LOCAL PATTERN WORK CLOSED TRAFFIC |
| Aircraft | C172/L-V/N |
Departure
| Time | 2026-04-29 20:32 |
|---|---|
| Airport | Northern Colorado Regional Airport (KFNL) |
Arrival
| Time | 2026-04-29 20:40 |
|---|---|
| Airport | Northern Colorado Regional Airport (KFNL) |
| Time | Latitude | Longitude | Altitude | Speed | Heading |
|---|---|---|---|---|---|
| 2026-04-29 20:21 | 40.44920 | -105.00841 | 4999 ft | 0 kts | 46° |
| 2026-04-29 20:26 | 40.44925 | -105.00836 | 4999 ft | 0 kts | 31° |
| 2026-04-29 20:26 | 40.44951 | -105.00845 | 4999 ft | 8 kts | 306° |
| 2026-04-29 20:26 | 40.44946 | -105.00913 | 4999 ft | 8 kts | 250° |
| 2026-04-29 20:27 | 40.44916 | -105.00981 | 4999 ft | 9 kts | 206° |
| 2026-04-29 20:27 | 40.44874 | -105.00995 | 4999 ft | 10 kts | 191° |
| 2026-04-29 20:27 | 40.44779 | -105.01018 | 5000 ft | 11 kts | 191° |
| 2026-04-29 20:27 | 40.44697 | -105.01027 | 5000 ft | 12 kts | 162° |
| 2026-04-29 20:28 | 40.44614 | -105.00989 | 5001 ft | 13 kts | 161° |
| 2026-04-29 20:28 | 40.44525 | -105.00949 | 5001 ft | 14 kts | 161° |
| 2026-04-29 20:28 | 40.44426 | -105.00903 | 5001 ft | 16 kts | 161° |
| 2026-04-29 20:28 | 40.44319 | -105.00856 | 5001 ft | 17 kts | 158° |
| 2026-04-29 20:29 | 40.44206 | -105.00806 | 4999 ft | 17 kts | 163° |
| 2026-04-29 20:29 | 40.44151 | -105.00770 | 4999 ft | 0 kts | 110° |
| 2026-04-29 20:29 | 40.44135 | -105.00752 | 4999 ft | 10 kts | 153° |
| 2026-04-29 20:30 | 40.44054 | -105.00722 | 5000 ft | 9 kts | 219° |
| 2026-04-29 20:30 | 40.44085 | -105.00751 | 5000 ft | 9 kts | 357° |
| 2026-04-29 20:30 | 40.44108 | -105.00757 | 5000 ft | 0 kts | 340° |
| 2026-04-29 20:31 | 40.44205 | -105.00802 | 4999 ft | 37 kts | 341° |
| 2026-04-29 20:31 | 40.44559 | -105.00962 | 5027 ft | 63 kts | 340° |
| 2026-04-29 20:31 | 40.44992 | -105.01137 | 5145 ft | 64 kts | 341° |
| 2026-04-29 20:31 | 40.45435 | -105.01312 | 5239 ft | 71 kts | 340° |
| 2026-04-29 20:32 | 40.45907 | -105.01491 | 5399 ft | 68 kts | 341° |
| 2026-04-29 20:32 | 40.46359 | -105.01658 | 5556 ft | 68 kts | 343° |
| 2026-04-29 20:32 | 40.46841 | -105.01796 | 5655 ft | 73 kts | 347° |
| 2026-04-29 20:32 | 40.47319 | -105.02031 | 5782 ft | 73 kts | 313° |
| 2026-04-29 20:33 | 40.47365 | -105.02678 | 5890 ft | 79 kts | 257° |
| 2026-04-29 20:33 | 40.47216 | -105.03404 | 5977 ft | 83 kts | 257° |
| 2026-04-29 20:33 | 40.47064 | -105.04158 | 6035 ft | 88 kts | 247° |
| 2026-04-29 20:33 | 40.46581 | -105.04562 | 6111 ft | 91 kts | 180° |
| 2026-04-29 20:34 | 40.45992 | -105.04371 | 6221 ft | 86 kts | 159° |
| 2026-04-29 20:34 | 40.45423 | -105.04092 | 6324 ft | 88 kts | 158° |
| 2026-04-29 20:34 | 40.44975 | -105.03842 | 6391 ft | 91 kts | 155° |
| 2026-04-29 20:34 | 40.44403 | -105.03497 | 6491 ft | 89 kts | 152° |
| 2026-04-29 20:35 | 40.43852 | -105.03117 | 6557 ft | 93 kts | 146° |
| 2026-04-29 20:35 | 40.43309 | -105.02645 | 6575 ft | 98 kts | 147° |
| 2026-04-29 20:35 | 40.42703 | -105.02171 | 6549 ft | 103 kts | 150° |
| 2026-04-29 20:35 | 40.42045 | -105.01743 | 6536 ft | 103 kts | 155° |
| 2026-04-29 20:36 | 40.41380 | -105.01467 | 6522 ft | 102 kts | 165° |
| 2026-04-29 20:36 | 40.40670 | -105.01225 | 6416 ft | 108 kts | 166° |
| 2026-04-29 20:36 | 40.39934 | -105.01000 | 6323 ft | 107 kts | 167° |
| 2026-04-29 20:36 | 40.39287 | -105.00566 | 6161 ft | 109 kts | 127° |
| 2026-04-29 20:37 | 40.39065 | -104.99638 | 5927 ft | 105 kts | 94° |
| 2026-04-29 20:37 | 40.39030 | -104.98725 | 5840 ft | 99 kts | 89° |
| 2026-04-29 20:37 | 40.39246 | -104.97941 | 5779 ft | 91 kts | 39° |
| 2026-04-29 20:37 | 40.39839 | -104.97746 | 5678 ft | 88 kts | 347° |
| 2026-04-29 20:38 | 40.40325 | -104.98150 | 5633 ft | 83 kts | 316° |
| 2026-04-29 20:38 | 40.40718 | -104.98695 | 5622 ft | 80 kts | 316° |
| 2026-04-29 20:38 | 40.41106 | -104.99172 | 5658 ft | 76 kts | 320° |
| 2026-04-29 20:38 | 40.41549 | -104.99565 | 5640 ft | 79 kts | 334° |
| 2026-04-29 20:39 | 40.42051 | -104.99812 | 5567 ft | 75 kts | 341° |
| 2026-04-29 20:39 | 40.42543 | -105.00025 | 5445 ft | 72 kts | 338° |
| 2026-04-29 20:39 | 40.42992 | -105.00226 | 5335 ft | 65 kts | 333° |
| 2026-04-29 20:39 | 40.43412 | -105.00426 | 5205 ft | 63 kts | 334° |
| 2026-04-29 20:40 | 40.43806 | -105.00617 | 5095 ft | 57 kts | 338° |
| 2026-04-29 20:40 | 40.44159 | -105.00780 | 5016 ft | 50 kts | 337° |
| 2026-04-29 20:40 | 40.44452 | -105.00917 | 5001 ft | 39 kts | 341° |
| 2026-04-29 20:40 | 40.44650 | -105.01005 | 5001 ft | 23 kts | 342° |
| 2026-04-29 20:41 | 40.44769 | -105.01020 | 5000 ft | 13 kts | 9° |
| 2026-04-29 20:41 | 40.44847 | -105.01001 | 4999 ft | 11 kts | 11° |
| 2026-04-29 20:41 | 40.44912 | -105.00984 | 4999 ft | 7 kts | 22° |
| 2026-04-29 20:41 | 40.44941 | -105.00932 | 4999 ft | 8 kts | 70° |
| 2026-04-29 20:42 | 40.44961 | -105.00859 | 4999 ft | 9 kts | 68° |
| 2026-04-29 20:42 | 40.44998 | -105.00819 | 4999 ft | 0 kts | 348° |